Terminal Aerodrome Forecast
Issued by NWS

Home | Current Version | Previous Version | Text Only | Print | Product List | Glossary On
Versions: 1 2 3 4 5 6 7 8 9 10 11 12 13 14 15 16 17 18 19 20 21
000
FTUS42 KRAH 171255 AAA
TAFINT
TAF AMD
KINT 171255Z 1713/1812 19003KT 2SM BR OVC004
      TEMPO 1713/1715 6SM BR OVC008
     FM171500 22012KT P6SM OVC008
     FM171700 22012G20KT P6SM BKN020
     FM180200 25006KT 4SM BR OVC007
     FM181100 27006KT 2SM BR OVC003=

USA.gov is the U.S. government's official web portal to all federal, state and local government web resources and services.